sensor_id;sensor_type;location;lat;lon;timestamp;P1;durP1;ratioP1;P2;durP2;ratioP2
36379;SDS011;22411;53.016;18.632;2023-06-14T00:00:42;3.42;;;2.72;;
36379;SDS011;22411;53.016;18.632;2023-06-14T00:03:29;3.92;;;2.53;;
36379;SDS011;22411;53.016;18.632;2023-06-14T00:05:57;4.55;;;2.00;;
36379;SDS011;22411;53.016;18.632;2023-06-14T00:08:23;3.72;;;2.67;;
36379;SDS011;22411;53.016;18.632;2023-06-14T00:10:50;2.40;;;2.10;;
36379;SDS011;22411;53.016;18.632;2023-06-14T00:13:15;2.72;;;2.42;;
36379;SDS011;22411;53.016;18.632;2023-06-14T00:15:41;2.45;;;2.00;;
36379;SDS011;22411;53.016;18.632;2023-06-14T00:18:08;9.30;;;3.60;;
36379;SDS011;22411;53.016;18.632;2023-06-14T00:20:34;5.20;;;2.50;;
36379;SDS011;22411;53.016;18.632;2023-06-14T00:23:00;4.03;;;2.53;;
36379;SDS011;22411;53.016;18.632;2023-06-14T00:25:26;3.85;;;2.20;;
36379;SDS011;22411;53.016;18.632;2023-06-14T00:27:52;2.83;;;2.50;;
36379;SDS011;22411;53.016;18.632;2023-06-14T00:30:19;5.40;;;2.90;;
36379;SDS011;22411;53.016;18.632;2023-06-14T00:32:45;3.60;;;2.67;;
36379;SDS011;22411;53.016;18.632;2023-06-14T00:35:11;2.92;;;2.30;;
36379;SDS011;22411;53.016;18.632;2023-06-14T00:37:37;4.53;;;2.65;;
36379;SDS011;22411;53.016;18.632;2023-06-14T00:40:03;3.85;;;2.80;;
36379;SDS011;22411;53.016;18.632;2023-06-14T00:42:30;4.00;;;3.22;;
36379;SDS011;22411;53.016;18.632;2023-06-14T00:44:56;6.57;;;3.17;;
36379;SDS011;22411;53.016;18.632;2023-06-14T00:47:22;5.82;;;3.20;;
36379;SDS011;22411;53.016;18.632;2023-06-14T00:49:49;5.70;;;3.20;;
36379;SDS011;22411;53.016;18.632;2023-06-14T00:52:16;5.05;;;3.50;;
36379;SDS011;22411;53.016;18.632;2023-06-14T00:54:43;5.00;;;3.58;;
36379;SDS011;22411;53.016;18.632;2023-06-14T00:57:09;4.63;;;3.47;;
36379;SDS011;22411;53.016;18.632;2023-06-14T00:59:46;6.25;;;3.70;;
36379;SDS011;22411;53.016;18.632;2023-06-14T01:02:13;5.47;;;3.45;;
36379;SDS011;22411;53.016;18.632;2023-06-14T01:04:43;5.07;;;4.20;;
36379;SDS011;22411;53.016;18.632;2023-06-14T01:15:48;5.93;;;4.45;;
36379;SDS011;22411;53.016;18.632;2023-06-14T01:18:15;5.57;;;3.95;;
36379;SDS011;22411;53.016;18.632;2023-06-14T01:20:45;3.80;;;3.45;;
36379;SDS011;22411;53.016;18.632;2023-06-14T01:23:19;9.43;;;4.07;;
36379;SDS011;22411;53.016;18.632;2023-06-14T01:25:46;5.85;;;4.13;;
36379;SDS011;22411;53.016;18.632;2023-06-14T01:28:14;5.75;;;4.95;;
36379;SDS011;22411;53.016;18.632;2023-06-14T01:30:42;6.40;;;4.97;;
36379;SDS011;22411;53.016;18.632;2023-06-14T01:33:15;5.90;;;4.30;;
36379;SDS011;22411;53.016;18.632;2023-06-14T01:35:50;5.82;;;5.28;;
36379;SDS011;22411;53.016;18.632;2023-06-14T01:38:17;7.75;;;5.43;;
36379;SDS011;22411;53.016;18.632;2023-06-14T01:40:46;7.07;;;6.30;;
36379;SDS011;22411;53.016;18.632;2023-06-14T01:43:15;8.23;;;6.50;;
36379;SDS011;22411;53.016;18.632;2023-06-14T01:45:42;9.25;;;6.43;;
36379;SDS011;22411;53.016;18.632;2023-06-14T01:48:08;11.02;;;7.43;;
36379;SDS011;22411;53.016;18.632;2023-06-14T01:50:34;9.95;;;6.90;;
36379;SDS011;22411;53.016;18.632;2023-06-14T01:53:00;7.72;;;6.55;;
36379;SDS011;22411;53.016;18.632;2023-06-14T01:55:26;7.43;;;6.13;;
36379;SDS011;22411;53.016;18.632;2023-06-14T01:57:53;10.10;;;7.28;;
36379;SDS011;22411;53.016;18.632;2023-06-14T02:00:19;8.23;;;7.05;;
36379;SDS011;22411;53.016;18.632;2023-06-14T02:02:46;9.63;;;6.20;;
36379;SDS011;22411;53.016;18.632;2023-06-14T02:05:12;10.13;;;6.82;;
36379;SDS011;22411;53.016;18.632;2023-06-14T02:07:38;7.88;;;7.15;;
36379;SDS011;22411;53.016;18.632;2023-06-14T02:10:05;7.05;;;6.22;;
36379;SDS011;22411;53.016;18.632;2023-06-14T02:12:31;8.35;;;6.07;;
36379;SDS011;22411;53.016;18.632;2023-06-14T02:14:57;7.05;;;6.35;;
36379;SDS011;22411;53.016;18.632;2023-06-14T02:17:23;6.90;;;6.18;;
36379;SDS011;22411;53.016;18.632;2023-06-14T02:19:50;7.28;;;6.57;;
36379;SDS011;22411;53.016;18.632;2023-06-14T02:22:16;7.18;;;6.47;;
36379;SDS011;22411;53.016;18.632;2023-06-14T02:24:42;7.63;;;6.90;;
36379;SDS011;22411;53.016;18.632;2023-06-14T02:27:08;10.20;;;7.70;;
36379;SDS011;22411;53.016;18.632;2023-06-14T02:29:37;7.65;;;6.85;;
36379;SDS011;22411;53.016;18.632;2023-06-14T02:32:04;8.05;;;7.28;;
36379;SDS011;22411;53.016;18.632;2023-06-14T02:34:30;9.10;;;7.47;;
36379;SDS011;22411;53.016;18.632;2023-06-14T02:36:56;8.73;;;7.28;;
36379;SDS011;22411;53.016;18.632;2023-06-14T02:39:22;8.18;;;7.38;;
36379;SDS011;22411;53.016;18.632;2023-06-14T02:41:49;8.63;;;7.60;;
36379;SDS011;22411;53.016;18.632;2023-06-14T02:44:17;9.23;;;7.38;;
36379;SDS011;22411;53.016;18.632;2023-06-14T02:46:43;8.32;;;7.03;;
36379;SDS011;22411;53.016;18.632;2023-06-14T02:49:10;8.00;;;7.20;;
36379;SDS011;22411;53.016;18.632;2023-06-14T02:51:39;8.95;;;8.05;;
36379;SDS011;22411;53.016;18.632;2023-06-14T02:54:05;8.88;;;8.05;;
36379;SDS011;22411;53.016;18.632;2023-06-14T02:56:31;9.52;;;8.23;;
36379;SDS011;22411;53.016;18.632;2023-06-14T02:58:56;9.25;;;7.57;;
36379;SDS011;22411;53.016;18.632;2023-06-14T03:01:22;8.93;;;7.28;;
36379;SDS011;22411;53.016;18.632;2023-06-14T03:03:48;13.27;;;7.93;;
36379;SDS011;22411;53.016;18.632;2023-06-14T03:06:14;9.30;;;8.32;;
36379;SDS011;22411;53.016;18.632;2023-06-14T03:08:42;12.35;;;8.25;;
36379;SDS011;22411;53.016;18.632;2023-06-14T03:11:07;10.07;;;7.40;;
36379;SDS011;22411;53.016;18.632;2023-06-14T03:13:34;8.82;;;6.90;;
36379;SDS011;22411;53.016;18.632;2023-06-14T03:16:00;9.90;;;8.30;;
36379;SDS011;22411;53.016;18.632;2023-06-14T03:18:29;9.13;;;8.30;;
36379;SDS011;22411;53.016;18.632;2023-06-14T03:20:56;9.82;;;7.97;;
36379;SDS011;22411;53.016;18.632;2023-06-14T03:23:23;8.70;;;7.93;;
36379;SDS011;22411;53.016;18.632;2023-06-14T03:25:50;9.80;;;7.60;;
36379;SDS011;22411;53.016;18.632;2023-06-14T03:28:16;10.57;;;9.18;;
36379;SDS011;22411;53.016;18.632;2023-06-14T03:30:42;9.65;;;7.53;;
36379;SDS011;22411;53.016;18.632;2023-06-14T03:33:08;9.23;;;8.20;;
36379;SDS011;22411;53.016;18.632;2023-06-14T03:35:34;10.98;;;7.47;;
36379;SDS011;22411;53.016;18.632;2023-06-14T03:38:00;11.07;;;8.10;;
36379;SDS011;22411;53.016;18.632;2023-06-14T03:40:26;9.88;;;7.55;;
36379;SDS011;22411;53.016;18.632;2023-06-14T03:42:55;9.02;;;7.53;;
36379;SDS011;22411;53.016;18.632;2023-06-14T03:45:21;10.68;;;8.27;;
36379;SDS011;22411;53.016;18.632;2023-06-14T03:47:47;10.57;;;8.15;;
36379;SDS011;22411;53.016;18.632;2023-06-14T03:50:13;9.40;;;7.97;;
36379;SDS011;22411;53.016;18.632;2023-06-14T03:52:38;12.82;;;9.40;;
36379;SDS011;22411;53.016;18.632;2023-06-14T03:55:05;12.10;;;8.55;;
36379;SDS011;22411;53.016;18.632;2023-06-14T03:57:31;8.68;;;7.80;;
36379;SDS011;22411;53.016;18.632;2023-06-14T03:59:56;8.63;;;7.68;;
36379;SDS011;22411;53.016;18.632;2023-06-14T04:02:22;9.43;;;8.25;;
36379;SDS011;22411;53.016;18.632;2023-06-14T04:04:48;8.65;;;7.47;;
36379;SDS011;22411;53.016;18.632;2023-06-14T04:07:15;11.48;;;8.88;;
36379;SDS011;22411;53.016;18.632;2023-06-14T04:09:44;11.35;;;8.63;;
36379;SDS011;22411;53.016;18.632;2023-06-14T04:12:10;12.82;;;9.13;;
36379;SDS011;22411;53.016;18.632;2023-06-14T04:14:37;11.32;;;8.70;;
36379;SDS011;22411;53.016;18.632;2023-06-14T04:17:03;9.23;;;8.32;;
36379;SDS011;22411;53.016;18.632;2023-06-14T04:19:29;10.45;;;8.95;;
36379;SDS011;22411;53.016;18.632;2023-06-14T04:21:55;11.38;;;8.77;;
36379;SDS011;22411;53.016;18.632;2023-06-14T04:24:20;11.82;;;8.50;;
36379;SDS011;22411;53.016;18.632;2023-06-14T04:26:46;13.05;;;9.82;;
36379;SDS011;22411;53.016;18.632;2023-06-14T04:29:13;14.38;;;10.98;;
36379;SDS011;22411;53.016;18.632;2023-06-14T04:31:41;12.75;;;9.77;;
36379;SDS011;22411;53.016;18.632;2023-06-14T04:34:11;14.15;;;10.48;;
36379;SDS011;22411;53.016;18.632;2023-06-14T04:36:43;16.77;;;10.15;;
36379;SDS011;22411;53.016;18.632;2023-06-14T04:39:15;12.50;;;9.40;;
36379;SDS011;22411;53.016;18.632;2023-06-14T04:41:43;10.73;;;9.60;;
36379;SDS011;22411;53.016;18.632;2023-06-14T04:44:09;11.30;;;9.95;;
36379;SDS011;22411;53.016;18.632;2023-06-14T04:46:35;14.32;;;9.75;;
36379;SDS011;22411;53.016;18.632;2023-06-14T04:49:17;13.55;;;10.55;;
36379;SDS011;22411;53.016;18.632;2023-06-14T04:51:43;15.48;;;11.77;;
36379;SDS011;22411;53.016;18.632;2023-06-14T04:54:10;13.98;;;10.27;;
36379;SDS011;22411;53.016;18.632;2023-06-14T04:56:38;15.35;;;11.95;;
36379;SDS011;22411;53.016;18.632;2023-06-14T04:59:04;12.38;;;9.68;;
36379;SDS011;22411;53.016;18.632;2023-06-14T05:01:30;12.52;;;9.75;;
36379;SDS011;22411;53.016;18.632;2023-06-14T05:03:57;12.20;;;10.40;;
36379;SDS011;22411;53.016;18.632;2023-06-14T05:06:23;14.98;;;10.75;;
36379;SDS011;22411;53.016;18.632;2023-06-14T05:08:49;18.70;;;14.07;;
36379;SDS011;22411;53.016;18.632;2023-06-14T05:11:15;11.75;;;10.55;;
36379;SDS011;22411;53.016;18.632;2023-06-14T05:13:42;14.73;;;9.70;;
36379;SDS011;22411;53.016;18.632;2023-06-14T05:16:10;10.82;;;9.15;;
36379;SDS011;22411;53.016;18.632;2023-06-14T05:18:36;12.35;;;9.73;;
36379;SDS011;22411;53.016;18.632;2023-06-14T05:21:03;11.88;;;8.02;;
36379;SDS011;22411;53.016;18.632;2023-06-14T05:23:31;9.77;;;7.20;;
36379;SDS011;22411;53.016;18.632;2023-06-14T05:25:56;8.93;;;6.78;;
36379;SDS011;22411;53.016;18.632;2023-06-14T05:28:22;9.00;;;6.75;;
36379;SDS011;22411;53.016;18.632;2023-06-14T05:30:48;11.18;;;7.38;;
36379;SDS011;22411;53.016;18.632;2023-06-14T05:33:14;13.48;;;8.02;;
36379;SDS011;22411;53.016;18.632;2023-06-14T05:35:40;9.50;;;7.15;;
36379;SDS011;22411;53.016;18.632;2023-06-14T05:38:05;12.68;;;7.32;;
36379;SDS011;22411;53.016;18.632;2023-06-14T05:40:33;12.57;;;7.07;;
36379;SDS011;22411;53.016;18.632;2023-06-14T05:42:59;10.45;;;7.80;;
36379;SDS011;22411;53.016;18.632;2023-06-14T05:45:24;10.38;;;7.15;;
36379;SDS011;22411;53.016;18.632;2023-06-14T05:47:50;12.27;;;8.30;;
36379;SDS011;22411;53.016;18.632;2023-06-14T05:50:17;15.63;;;9.02;;
36379;SDS011;22411;53.016;18.632;2023-06-14T05:52:43;11.52;;;8.25;;
36379;SDS011;22411;53.016;18.632;2023-06-14T05:55:08;11.07;;;8.70;;
36379;SDS011;22411;53.016;18.632;2023-06-14T05:57:37;11.20;;;8.88;;
36379;SDS011;22411;53.016;18.632;2023-06-14T06:00:03;10.32;;;7.82;;
36379;SDS011;22411;53.016;18.632;2023-06-14T06:02:40;12.75;;;7.90;;
36379;SDS011;22411;53.016;18.632;2023-06-14T06:05:07;11.52;;;7.47;;
36379;SDS011;22411;53.016;18.632;2023-06-14T06:07:34;11.80;;;6.97;;
36379;SDS011;22411;53.016;18.632;2023-06-14T06:09:59;10.82;;;8.32;;
36379;SDS011;22411;53.016;18.632;2023-06-14T06:12:25;10.95;;;7.65;;
36379;SDS011;22411;53.016;18.632;2023-06-14T06:14:51;13.00;;;8.27;;
36379;SDS011;22411;53.016;18.632;2023-06-14T06:17:17;20.73;;;18.20;;
36379;SDS011;22411;53.016;18.632;2023-06-14T06:19:42;13.63;;;9.77;;
36379;SDS011;22411;53.016;18.632;2023-06-14T06:22:08;10.02;;;7.75;;
36379;SDS011;22411;53.016;18.632;2023-06-14T06:24:33;11.75;;;8.48;;
36379;SDS011;22411;53.016;18.632;2023-06-14T06:26:59;16.80;;;8.80;;
36379;SDS011;22411;53.016;18.632;2023-06-14T06:29:25;12.50;;;7.82;;
36379;SDS011;22411;53.016;18.632;2023-06-14T06:31:51;10.70;;;8.25;;
36379;SDS011;22411;53.016;18.632;2023-06-14T06:34:17;16.73;;;9.60;;
36379;SDS011;22411;53.016;18.632;2023-06-14T06:36:43;11.35;;;8.82;;
36379;SDS011;22411;53.016;18.632;2023-06-14T06:39:08;10.50;;;8.63;;
36379;SDS011;22411;53.016;18.632;2023-06-14T06:41:37;14.32;;;9.05;;
36379;SDS011;22411;53.016;18.632;2023-06-14T06:44:05;9.90;;;8.23;;
36379;SDS011;22411;53.016;18.632;2023-06-14T06:46:32;12.35;;;9.07;;
36379;SDS011;22411;53.016;18.632;2023-06-14T06:48:57;11.85;;;8.63;;
36379;SDS011;22411;53.016;18.632;2023-06-14T06:51:23;9.40;;;8.50;;
36379;SDS011;22411;53.016;18.632;2023-06-14T06:53:52;13.63;;;9.98;;
36379;SDS011;22411;53.016;18.632;2023-06-14T06:56:22;12.82;;;9.57;;
36379;SDS011;22411;53.016;18.632;2023-06-14T06:58:49;10.93;;;8.23;;
36379;SDS011;22411;53.016;18.632;2023-06-14T07:01:15;11.50;;;9.63;;
36379;SDS011;22411;53.016;18.632;2023-06-14T07:03:41;11.63;;;9.05;;
36379;SDS011;22411;53.016;18.632;2023-06-14T07:06:07;14.48;;;9.57;;
36379;SDS011;22411;53.016;18.632;2023-06-14T07:08:32;12.00;;;9.00;;
36379;SDS011;22411;53.016;18.632;2023-06-14T07:10:58;13.80;;;10.35;;
36379;SDS011;22411;53.016;18.632;2023-06-14T07:13:24;11.45;;;9.40;;
36379;SDS011;22411;53.016;18.632;2023-06-14T07:15:50;11.70;;;10.05;;
36379;SDS011;22411;53.016;18.632;2023-06-14T07:18:18;11.40;;;9.73;;
36379;SDS011;22411;53.016;18.632;2023-06-14T07:20:44;13.88;;;10.07;;
36379;SDS011;22411;53.016;18.632;2023-06-14T07:23:09;9.93;;;8.55;;
36379;SDS011;22411;53.016;18.632;2023-06-14T07:25:36;12.95;;;9.75;;
36379;SDS011;22411;53.016;18.632;2023-06-14T07:28:01;13.18;;;10.43;;
36379;SDS011;22411;53.016;18.632;2023-06-14T07:30:27;15.57;;;10.68;;
36379;SDS011;22411;53.016;18.632;2023-06-14T07:32:55;14.75;;;10.15;;
36379;SDS011;22411;53.016;18.632;2023-06-14T07:35:21;13.68;;;10.05;;
36379;SDS011;22411;53.016;18.632;2023-06-14T07:37:47;11.07;;;9.88;;
36379;SDS011;22411;53.016;18.632;2023-06-14T07:40:13;11.48;;;9.63;;
36379;SDS011;22411;53.016;18.632;2023-06-14T07:42:39;10.80;;;9.70;;
36379;SDS011;22411;53.016;18.632;2023-06-14T07:45:05;11.38;;;9.48;;
36379;SDS011;22411;53.016;18.632;2023-06-14T07:47:31;11.32;;;9.30;;
36379;SDS011;22411;53.016;18.632;2023-06-14T07:49:57;13.05;;;8.88;;
36379;SDS011;22411;53.016;18.632;2023-06-14T07:52:22;14.13;;;10.02;;
36379;SDS011;22411;53.016;18.632;2023-06-14T07:54:48;12.57;;;9.75;;
36379;SDS011;22411;53.016;18.632;2023-06-14T07:57:14;11.93;;;9.73;;
36379;SDS011;22411;53.016;18.632;2023-06-14T07:59:40;11.80;;;10.43;;
36379;SDS011;22411;53.016;18.632;2023-06-14T08:02:05;13.00;;;9.70;;
36379;SDS011;22411;53.016;18.632;2023-06-14T08:04:32;12.30;;;9.32;;
36379;SDS011;22411;53.016;18.632;2023-06-14T08:06:58;13.55;;;8.20;;
36379;SDS011;22411;53.016;18.632;2023-06-14T08:09:26;11.93;;;8.65;;
36379;SDS011;22411;53.016;18.632;2023-06-14T08:11:54;10.65;;;8.00;;
36379;SDS011;22411;53.016;18.632;2023-06-14T08:14:20;10.20;;;7.90;;
36379;SDS011;22411;53.016;18.632;2023-06-14T08:16:45;12.43;;;9.00;;
36379;SDS011;22411;53.016;18.632;2023-06-14T08:19:11;14.00;;;10.18;;
36379;SDS011;22411;53.016;18.632;2023-06-14T08:21:37;14.55;;;10.20;;
36379;SDS011;22411;53.016;18.632;2023-06-14T08:24:03;11.20;;;8.50;;
36379;SDS011;22411;53.016;18.632;2023-06-14T08:26:29;11.32;;;8.90;;
36379;SDS011;22411;53.016;18.632;2023-06-14T08:28:55;8.98;;;8.07;;
36379;SDS011;22411;53.016;18.632;2023-06-14T08:31:21;13.75;;;8.80;;
36379;SDS011;22411;53.016;18.632;2023-06-14T08:33:47;12.35;;;9.07;;
36379;SDS011;22411;53.016;18.632;2023-06-14T08:36:13;13.68;;;10.10;;
36379;SDS011;22411;53.016;18.632;2023-06-14T08:38:39;12.35;;;9.52;;
36379;SDS011;22411;53.016;18.632;2023-06-14T08:41:05;12.48;;;9.63;;
36379;SDS011;22411;53.016;18.632;2023-06-14T08:43:34;17.05;;;10.38;;
36379;SDS011;22411;53.016;18.632;2023-06-14T08:46:03;12.35;;;8.80;;
36379;SDS011;22411;53.016;18.632;2023-06-14T08:48:31;10.77;;;8.98;;
36379;SDS011;22411;53.016;18.632;2023-06-14T08:51:01;11.70;;;8.88;;
36379;SDS011;22411;53.016;18.632;2023-06-14T08:56:02;10.68;;;9.57;;
36379;SDS011;22411;53.016;18.632;2023-06-14T08:58:33;14.85;;;8.63;;
36379;SDS011;22411;53.016;18.632;2023-06-14T09:01:02;13.52;;;8.85;;
36379;SDS011;22411;53.016;18.632;2023-06-14T09:03:28;13.60;;;8.95;;
36379;SDS011;22411;53.016;18.632;2023-06-14T09:05:58;14.67;;;9.07;;
36379;SDS011;22411;53.016;18.632;2023-06-14T09:08:27;12.68;;;8.95;;
36379;SDS011;22411;53.016;18.632;2023-06-14T09:10:56;10.82;;;8.63;;
36379;SDS011;22411;53.016;18.632;2023-06-14T09:13:22;10.95;;;8.02;;
36379;SDS011;22411;53.016;18.632;2023-06-14T09:15:48;14.15;;;8.95;;
36379;SDS011;22411;53.016;18.632;2023-06-14T09:18:15;10.52;;;8.18;;
36379;SDS011;22411;53.016;18.632;2023-06-14T09:20:40;10.65;;;8.63;;
36379;SDS011;22411;53.016;18.632;2023-06-14T09:23:06;11.60;;;7.78;;
36379;SDS011;22411;53.016;18.632;2023-06-14T09:25:41;9.90;;;7.63;;
36379;SDS011;22411;53.016;18.632;2023-06-14T09:28:09;11.98;;;7.30;;
36379;SDS011;22411;53.016;18.632;2023-06-14T09:30:36;13.43;;;7.93;;
36379;SDS011;22411;53.016;18.632;2023-06-14T09:33:02;8.32;;;6.75;;
36379;SDS011;22411;53.016;18.632;2023-06-14T09:35:28;8.98;;;6.50;;
36379;SDS011;22411;53.016;18.632;2023-06-14T09:37:57;12.70;;;6.78;;
36379;SDS011;22411;53.016;18.632;2023-06-14T09:40:22;8.00;;;7.10;;
36379;SDS011;22411;53.016;18.632;2023-06-14T09:42:49;12.10;;;7.25;;
36379;SDS011;22411;53.016;18.632;2023-06-14T09:45:16;11.18;;;8.18;;
36379;SDS011;22411;53.016;18.632;2023-06-14T09:50:15;9.85;;;6.85;;
36379;SDS011;22411;53.016;18.632;2023-06-14T09:52:42;13.00;;;6.47;;
36379;SDS011;22411;53.016;18.632;2023-06-14T09:55:12;7.82;;;5.05;;
36379;SDS011;22411;53.016;18.632;2023-06-14T09:57:41;10.35;;;5.97;;
36379;SDS011;22411;53.016;18.632;2023-06-14T10:00:08;10.63;;;5.95;;
36379;SDS011;22411;53.016;18.632;2023-06-14T10:02:38;10.63;;;5.35;;
36379;SDS011;22411;53.016;18.632;2023-06-14T10:05:08;7.70;;;5.03;;
36379;SDS011;22411;53.016;18.632;2023-06-14T10:07:44;8.77;;;6.05;;
36379;SDS011;22411;53.016;18.632;2023-06-14T10:10:12;7.30;;;4.68;;
36379;SDS011;22411;53.016;18.632;2023-06-14T10:12:39;8.30;;;5.20;;
36379;SDS011;22411;53.016;18.632;2023-06-14T10:15:05;13.52;;;6.00;;
36379;SDS011;22411;53.016;18.632;2023-06-14T10:17:39;10.00;;;5.32;;
36379;SDS011;22411;53.016;18.632;2023-06-14T10:20:31;12.13;;;5.43;;
36379;SDS011;22411;53.016;18.632;2023-06-14T10:23:08;11.90;;;5.50;;
36379;SDS011;22411;53.016;18.632;2023-06-14T10:25:38;16.67;;;7.38;;
36379;SDS011;22411;53.016;18.632;2023-06-14T10:28:14;10.15;;;5.20;;
36379;SDS011;22411;53.016;18.632;2023-06-14T10:31:01;8.57;;;5.60;;
36379;SDS011;22411;53.016;18.632;2023-06-14T10:33:29;10.40;;;5.95;;
36379;SDS011;22411;53.016;18.632;2023-06-14T10:36:23;11.43;;;6.68;;
36379;SDS011;22411;53.016;18.632;2023-06-14T10:41:30;18.35;;;7.20;;
36379;SDS011;22411;53.016;18.632;2023-06-14T10:46:59;9.02;;;5.15;;
36379;SDS011;22411;53.016;18.632;2023-06-14T10:49:44;9.27;;;5.15;;
36379;SDS011;22411;53.016;18.632;2023-06-14T10:57:32;8.05;;;4.82;;
36379;SDS011;22411;53.016;18.632;2023-06-14T10:59:59;7.57;;;5.13;;
36379;SDS011;22411;53.016;18.632;2023-06-14T11:05:19;5.70;;;3.38;;
36379;SDS011;22411;53.016;18.632;2023-06-14T11:10:41;5.10;;;2.83;;
36379;SDS011;22411;53.016;18.632;2023-06-14T11:13:08;3.58;;;2.22;;
36379;SDS011;22411;53.016;18.632;2023-06-14T11:15:38;4.30;;;2.65;;
36379;SDS011;22411;53.016;18.632;2023-06-14T11:18:08;6.90;;;2.70;;
36379;SDS011;22411;53.016;18.632;2023-06-14T11:20:37;5.78;;;2.60;;
36379;SDS011;22411;53.016;18.632;2023-06-14T11:23:03;4.15;;;2.13;;
36379;SDS011;22411;53.016;18.632;2023-06-14T11:25:30;6.55;;;2.65;;
36379;SDS011;22411;53.016;18.632;2023-06-14T11:27:56;3.63;;;2.25;;
36379;SDS011;22411;53.016;18.632;2023-06-14T11:30:22;6.50;;;2.90;;
36379;SDS011;22411;53.016;18.632;2023-06-14T11:32:49;8.05;;;3.22;;
36379;SDS011;22411;53.016;18.632;2023-06-14T11:35:17;5.63;;;2.63;;
36379;SDS011;22411;53.016;18.632;2023-06-14T11:37:44;9.05;;;2.50;;
36379;SDS011;22411;53.016;18.632;2023-06-14T11:40:10;8.60;;;3.03;;
36379;SDS011;22411;53.016;18.632;2023-06-14T11:42:37;5.07;;;2.13;;
36379;SDS011;22411;53.016;18.632;2023-06-14T11:45:08;6.22;;;2.08;;
36379;SDS011;22411;53.016;18.632;2023-06-14T11:47:35;6.38;;;2.78;;
36379;SDS011;22411;53.016;18.632;2023-06-14T11:50:03;7.13;;;2.80;;
36379;SDS011;22411;53.016;18.632;2023-06-14T11:52:30;8.75;;;2.80;;
36379;SDS011;22411;53.016;18.632;2023-06-14T11:54:57;8.88;;;2.88;;
36379;SDS011;22411;53.016;18.632;2023-06-14T11:57:24;8.30;;;2.58;;
36379;SDS011;22411;53.016;18.632;2023-06-14T11:59:50;7.47;;;2.58;;
36379;SDS011;22411;53.016;18.632;2023-06-14T12:02:17;8.80;;;2.15;;
36379;SDS011;22411;53.016;18.632;2023-06-14T12:04:46;5.30;;;2.50;;
36379;SDS011;22411;53.016;18.632;2023-06-14T12:07:14;6.43;;;2.60;;
36379;SDS011;22411;53.016;18.632;2023-06-14T12:10:03;4.13;;;2.15;;
36379;SDS011;22411;53.016;18.632;2023-06-14T12:12:34;5.53;;;2.45;;
36379;SDS011;22411;53.016;18.632;2023-06-14T12:15:05;4.57;;;2.38;;
36379;SDS011;22411;53.016;18.632;2023-06-14T12:17:36;5.35;;;2.78;;
36379;SDS011;22411;53.016;18.632;2023-06-14T12:20:09;6.45;;;2.70;;
36379;SDS011;22411;53.016;18.632;2023-06-14T12:22:54;8.02;;;2.92;;
36379;SDS011;22411;53.016;18.632;2023-06-14T12:27:54;6.20;;;3.65;;
36379;SDS011;22411;53.016;18.632;2023-06-14T12:30:21;14.93;;;4.47;;
36379;SDS011;22411;53.016;18.632;2023-06-14T12:32:46;6.22;;;3.17;;
36379;SDS011;22411;53.016;18.632;2023-06-14T12:35:12;4.97;;;2.80;;
36379;SDS011;22411;53.016;18.632;2023-06-14T12:37:38;7.55;;;2.85;;
36379;SDS011;22411;53.016;18.632;2023-06-14T12:40:04;9.43;;;1.55;;
36379;SDS011;22411;53.016;18.632;2023-06-14T12:42:31;8.05;;;2.30;;
36379;SDS011;22411;53.016;18.632;2023-06-14T12:44:59;5.90;;;1.92;;
36379;SDS011;22411;53.016;18.632;2023-06-14T12:47:25;8.23;;;2.90;;
36379;SDS011;22411;53.016;18.632;2023-06-14T12:49:51;6.20;;;2.65;;
36379;SDS011;22411;53.016;18.632;2023-06-14T12:52:16;11.13;;;2.42;;
36379;SDS011;22411;53.016;18.632;2023-06-14T12:54:42;2.88;;;1.42;;
36379;SDS011;22411;53.016;18.632;2023-06-14T12:57:08;8.93;;;2.15;;
36379;SDS011;22411;53.016;18.632;2023-06-14T12:59:33;4.60;;;2.13;;
36379;SDS011;22411;53.016;18.632;2023-06-14T13:02:00;3.28;;;2.10;;
36379;SDS011;22411;53.016;18.632;2023-06-14T13:04:36;8.82;;;1.98;;
36379;SDS011;22411;53.016;18.632;2023-06-14T13:07:02;6.07;;;1.27;;
36379;SDS011;22411;53.016;18.632;2023-06-14T13:09:28;7.28;;;1.80;;
36379;SDS011;22411;53.016;18.632;2023-06-14T13:11:53;3.33;;;1.10;;
36379;SDS011;22411;53.016;18.632;2023-06-14T13:14:19;2.83;;;1.25;;
36379;SDS011;22411;53.016;18.632;2023-06-14T13:16:45;3.85;;;1.20;;
36379;SDS011;22411;53.016;18.632;2023-06-14T13:19:11;2.13;;;0.85;;
36379;SDS011;22411;53.016;18.632;2023-06-14T13:21:36;2.45;;;0.93;;
36379;SDS011;22411;53.016;18.632;2023-06-14T13:24:02;2.20;;;0.77;;
36379;SDS011;22411;53.016;18.632;2023-06-14T13:26:28;1.40;;;0.60;;
36379;SDS011;22411;53.016;18.632;2023-06-14T13:28:54;1.80;;;0.93;;
36379;SDS011;22411;53.016;18.632;2023-06-14T13:31:19;2.17;;;0.60;;
36379;SDS011;22411;53.016;18.632;2023-06-14T13:33:45;1.38;;;0.80;;
36379;SDS011;22411;53.016;18.632;2023-06-14T13:36:11;3.00;;;0.95;;
36379;SDS011;22411;53.016;18.632;2023-06-14T13:38:37;2.03;;;0.90;;
36379;SDS011;22411;53.016;18.632;2023-06-14T13:41:02;4.45;;;1.00;;
36379;SDS011;22411;53.016;18.632;2023-06-14T13:43:28;2.17;;;1.05;;
36379;SDS011;22411;53.016;18.632;2023-06-14T13:45:54;5.10;;;1.83;;
36379;SDS011;22411;53.016;18.632;2023-06-14T13:48:20;6.10;;;1.98;;
36379;SDS011;22411;53.016;18.632;2023-06-14T13:50:45;1.73;;;0.90;;
36379;SDS011;22411;53.016;18.632;2023-06-14T13:53:11;2.20;;;1.15;;
36379;SDS011;22411;53.016;18.632;2023-06-14T13:55:37;3.75;;;1.00;;
36379;SDS011;22411;53.016;18.632;2023-06-14T13:58:03;1.90;;;0.90;;
36379;SDS011;22411;53.016;18.632;2023-06-14T14:00:28;4.15;;;1.17;;
36379;SDS011;22411;53.016;18.632;2023-06-14T14:02:54;1.77;;;0.98;;
36379;SDS011;22411;53.016;18.632;2023-06-14T14:05:19;5.18;;;1.65;;
36379;SDS011;22411;53.016;18.632;2023-06-14T14:07:46;3.38;;;1.50;;
36379;SDS011;22411;53.016;18.632;2023-06-14T14:10:12;2.22;;;1.10;;
36379;SDS011;22411;53.016;18.632;2023-06-14T14:12:38;4.97;;;1.40;;
36379;SDS011;22411;53.016;18.632;2023-06-14T14:15:05;4.20;;;1.40;;
36379;SDS011;22411;53.016;18.632;2023-06-14T14:17:37;3.58;;;1.20;;
36379;SDS011;22411;53.016;18.632;2023-06-14T14:20:03;3.30;;;2.10;;
36379;SDS011;22411;53.016;18.632;2023-06-14T14:22:29;3.35;;;1.30;;
36379;SDS011;22411;53.016;18.632;2023-06-14T14:24:54;4.32;;;1.85;;
36379;SDS011;22411;53.016;18.632;2023-06-14T14:27:20;3.33;;;1.83;;
36379;SDS011;22411;53.016;18.632;2023-06-14T14:29:46;5.28;;;1.48;;
36379;SDS011;22411;53.016;18.632;2023-06-14T14:32:12;4.82;;;1.92;;
36379;SDS011;22411;53.016;18.632;2023-06-14T14:34:39;4.25;;;1.60;;
36379;SDS011;22411;53.016;18.632;2023-06-14T14:37:05;5.90;;;1.92;;
36379;SDS011;22411;53.016;18.632;2023-06-14T14:39:31;5.10;;;1.85;;
36379;SDS011;22411;53.016;18.632;2023-06-14T14:41:56;5.75;;;1.63;;
36379;SDS011;22411;53.016;18.632;2023-06-14T14:44:22;5.18;;;2.10;;
36379;SDS011;22411;53.016;18.632;2023-06-14T14:46:48;2.80;;;2.10;;
36379;SDS011;22411;53.016;18.632;2023-06-14T14:49:13;5.70;;;2.00;;
36379;SDS011;22411;53.016;18.632;2023-06-14T14:51:39;5.80;;;2.15;;
36379;SDS011;22411;53.016;18.632;2023-06-14T14:54:05;6.18;;;2.45;;
36379;SDS011;22411;53.016;18.632;2023-06-14T14:56:32;4.10;;;2.53;;
36379;SDS011;22411;53.016;18.632;2023-06-14T14:58:58;5.03;;;2.25;;
36379;SDS011;22411;53.016;18.632;2023-06-14T15:01:23;4.40;;;3.00;;